Time;durP1;ratioP1;P1;durP2;ratioP2;P2;SDS_P1;SDS_P2;PMS_P1;PMS_P2;Temp;Humidity;BMP_temperature;BMP_pressure;BME280_temperature;BME280_humidity;BME280_pressure;Samples;Min_cycle;Max_cycle;Signal;HPM_P1;HPM_P2
2022/05/31 00:01:58;;;;;;;;;3.00;2.00;;;;;;;;5083061;27;63929;-76
2022/05/31 00:04:24;;;;;;;;;3.25;3.25;;;;;;;;5083558;27;61910;-76
2022/05/31 00:06:49;;;;;;;;;3.75;3.75;;;;;;;;5102454;27;61753;-76
2022/05/31 00:09:15;;;;;;;;;7.50;4.00;;;;;;;;5104386;27;62134;-76
2022/05/31 00:11:41;;;;;;;;;8.25;5.75;;;;;;;;5104981;27;62749;-76
2022/05/31 00:14:07;;;;;;;;;6.00;6.00;;;;;;;;5105757;27;61843;-76
2022/05/31 00:16:32;;;;;;;;;9.75;9.50;;;;;;;;5105322;27;61810;-76
2022/05/31 00:18:57;;;;;;;;;16.00;11.00;;;;;;;;5086944;27;62378;-76
2022/05/31 00:21:28;;;;;;;;;12.00;10.50;;;;;;;;5104625;27;62121;-76
2022/05/31 00:23:53;;;;;;;;;12.25;10.75;;;;;;;;5087146;27;61776;-76
2022/05/31 00:26:18;;;;;;;;;10.00;9.50;;;;;;;;5105511;27;61872;-76
2022/05/31 00:28:43;;;;;;;;;11.00;8.75;;;;;;;;5105657;27;61678;-76
2022/05/31 00:31:09;;;;;;;;;8.75;8.00;;;;;;;;5086299;27;63992;-76
2022/05/31 00:33:34;;;;;;;;;9.75;6.50;;;;;;;;5105072;27;61917;-76
2022/05/31 00:36:00;;;;;;;;;10.00;6.75;;;;;;;;5087067;27;61796;-76
2022/05/31 00:38:25;;;;;;;;;7.25;5.50;;;;;;;;5105109;27;61674;-76
2022/05/31 00:40:50;;;;;;;;;7.50;4.00;;;;;;;;5104797;27;61805;-76
2022/05/31 00:43:22;;;;;;;;;6.25;4.50;;;;;;;;5086395;27;61960;-76
2022/05/31 00:46:02;;;;;;;;;8.00;5.50;;;;;;;;5105428;27;61693;-76
2022/05/31 00:48:31;;;;;;;;;5.00;4.00;;;;;;;;5104762;27;61893;-76
2022/05/31 00:51:02;;;;;;;;;4.00;3.00;;;;;;;;5104578;27;61833;-76
2022/05/31 00:53:32;;;;;;;;;4.00;4.00;;;;;;;;5104989;27;61825;-76
2022/05/31 00:56:00;;;;;;;;;3.75;2.00;;;;;;;;5086759;27;62177;-76
2022/05/31 00:58:25;;;;;;;;;3.25;3.00;;;;;;;;5105057;27;61759;-76
2022/05/31 01:00:51;;;;;;;;;5.00;4.00;;;;;;;;5085929;27;63533;-76
2022/05/31 01:03:17;;;;;;;;;2.50;1.00;;;;;;;;5104864;27;61819;-76
2022/05/31 01:05:43;;;;;;;;;2.00;2.00;;;;;;;;5104918;27;61977;-76
2022/05/31 01:08:10;;;;;;;;;4.00;3.50;;;;;;;;5104926;27;61882;-76
2022/05/31 01:10:36;;;;;;;;;1.00;1.00;;;;;;;;5104002;27;61857;-76
2022/05/31 01:13:02;;;;;;;;;2.00;2.00;;;;;;;;5104532;27;61960;-76
2022/05/31 01:15:27;;;;;;;;;2.75;1.00;;;;;;;;5104641;27;61801;-76
2022/05/31 01:17:53;;;;;;;;;5.00;2.25;;;;;;;;5105005;27;61732;-76
2022/05/31 01:20:20;;;;;;;;;1.00;1.00;;;;;;;;5103150;27;63037;-76
2022/05/31 01:22:49;;;;;;;;;2.50;2.00;;;;;;;;5104305;27;61826;-76
2022/05/31 01:25:21;;;;;;;;;1.75;1.00;;;;;;;;5104983;27;61782;-76
2022/05/31 01:28:05;;;;;;;;;2.00;2.00;;;;;;;;5086074;27;61763;-76
2022/05/31 01:30:32;;;;;;;;;3.00;2.00;;;;;;;;5085393;27;63783;-76
2022/05/31 01:33:12;;;;;;;;;1.25;1.25;;;;;;;;5085853;27;62239;-76
2022/05/31 01:35:37;;;;;;;;;0.50;0.50;;;;;;;;5103884;27;62132;-76
2022/05/31 01:38:15;;;;;;;;;1.00;1.00;;;;;;;;5104667;27;61823;-76
2022/05/31 01:40:43;;;;;;;;;2.00;2.00;;;;;;;;5103750;27;61900;-76
2022/05/31 01:43:08;;;;;;;;;1.00;1.00;;;;;;;;5104097;27;61980;-76
2022/05/31 01:45:37;;;;;;;;;2.00;1.00;;;;;;;;5104247;27;62233;-76
2022/05/31 01:48:04;;;;;;;;;2.75;1.00;;;;;;;;5086165;27;61877;-76
2022/05/31 01:50:30;;;;;;;;;1.00;1.00;;;;;;;;5103496;27;61922;-76
2022/05/31 01:52:55;;;;;;;;;0.00;0.00;;;;;;;;5104211;27;61721;-76
2022/05/31 01:55:21;;;;;;;;;2.25;1.00;;;;;;;;5104277;27;61694;-76
2022/05/31 01:57:49;;;;;;;;;1.50;1.00;;;;;;;;5103862;27;62019;-76
2022/05/31 02:00:16;;;;;;;;;1.00;1.00;;;;;;;;5103771;27;61833;-76
2022/05/31 02:02:47;;;;;;;;;1.50;1.50;;;;;;;;5085360;27;61892;-76
2022/05/31 02:05:12;;;;;;;;;5.75;1.75;;;;;;;;5103686;27;61927;-76
2022/05/31 02:07:38;;;;;;;;;2.00;1.00;;;;;;;;5104115;27;61982;-76
2022/05/31 02:10:03;;;;;;;;;2.50;1.25;;;;;;;;5103220;27;62103;-76
2022/05/31 02:12:30;;;;;;;;;2.00;2.00;;;;;;;;5103517;27;61949;-76
2022/05/31 02:14:56;;;;;;;;;2.00;1.50;;;;;;;;5103847;27;61816;-76
2022/05/31 02:17:22;;;;;;;;;2.25;1.25;;;;;;;;5085677;27;62260;-76
2022/05/31 02:19:48;;;;;;;;;2.00;0.00;;;;;;;;5102686;27;62614;-76
2022/05/31 02:22:15;;;;;;;;;2.50;1.00;;;;;;;;5085413;27;61891;-76
2022/05/31 02:24:40;;;;;;;;;1.00;1.00;;;;;;;;5103718;27;61813;-76
2022/05/31 02:27:07;;;;;;;;;3.75;2.00;;;;;;;;5103851;27;62055;-76
2022/05/31 02:29:33;;;;;;;;;0.75;0.75;;;;;;;;5103327;27;61803;-76
2022/05/31 02:32:00;;;;;;;;;1.25;1.25;;;;;;;;5083893;27;61992;-76
2022/05/31 02:34:27;;;;;;;;;2.00;2.00;;;;;;;;5084946;27;61779;-76
2022/05/31 02:36:52;;;;;;;;;1.50;1.50;;;;;;;;5103711;27;61719;-76
2022/05/31 02:39:18;;;;;;;;;1.00;1.00;;;;;;;;5083987;27;63985;-76
2022/05/31 02:41:43;;;;;;;;;2.75;1.75;;;;;;;;5103149;27;61916;-76
2022/05/31 02:44:09;;;;;;;;;2.00;1.00;;;;;;;;5085051;27;61696;-76
2022/05/31 02:46:34;;;;;;;;;4.00;1.75;;;;;;;;5084801;27;61799;-76
2022/05/31 02:49:00;;;;;;;;;1.00;1.00;;;;;;;;5102352;27;62004;-76
2022/05/31 02:51:25;;;;;;;;;1.50;0.50;;;;;;;;5084957;27;61892;-76
2022/05/31 02:53:51;;;;;;;;;3.00;1.00;;;;;;;;5102849;27;61781;-76
2022/05/31 02:56:16;;;;;;;;;1.25;1.00;;;;;;;;5103651;27;62133;-76
2022/05/31 02:58:41;;;;;;;;;1.00;1.00;;;;;;;;5102485;27;61723;-76
2022/05/31 03:01:22;;;;;;;;;2.50;2.50;;;;;;;;5103069;27;62527;-76
2022/05/31 03:03:47;;;;;;;;;1.00;1.00;;;;;;;;5084631;27;61917;-76
2022/05/31 03:06:12;;;;;;;;;1.00;1.00;;;;;;;;5103669;27;61743;-76
2022/05/31 03:08:37;;;;;;;;;1.00;1.00;;;;;;;;5101895;27;61673;-76
2022/05/31 03:11:03;;;;;;;;;2.25;1.00;;;;;;;;5102671;27;62025;-76
2022/05/31 03:13:29;;;;;;;;;0.25;0.25;;;;;;;;5084540;27;61778;-76
2022/05/31 03:16:00;;;;;;;;;0.25;0.25;;;;;;;;5103174;27;61992;-76
2022/05/31 03:18:28;;;;;;;;;2.00;2.00;;;;;;;;5102030;27;61764;-76
2022/05/31 03:20:56;;;;;;;;;4.25;3.00;;;;;;;;5084368;27;61968;-76
2022/05/31 03:23:21;;;;;;;;;3.25;3.25;;;;;;;;5102789;27;61970;-76
2022/05/31 03:25:47;;;;;;;;;3.50;2.00;;;;;;;;5084580;27;61937;-75
2022/05/31 03:28:14;;;;;;;;;3.50;2.00;;;;;;;;5102251;27;61693;-76
2022/05/31 03:30:41;;;;;;;;;2.75;2.75;;;;;;;;5102585;27;61755;-76
2022/05/31 03:33:07;;;;;;;;;2.00;2.00;;;;;;;;5102548;27;62092;-76
2022/05/31 03:35:33;;;;;;;;;2.00;2.00;;;;;;;;5084367;27;61902;-76
2022/05/31 03:37:58;;;;;;;;;1.50;1.50;;;;;;;;5101405;27;63139;-76
2022/05/31 03:43:08;;;;;;;;;1.00;1.00;;;;;;;;5105354;27;62109;-76
2022/05/31 03:45:37;;;;;;;;;3.00;2.00;;;;;;;;5106547;27;61727;-76
2022/05/31 03:48:03;;;;;;;;;2.50;1.75;;;;;;;;5105536;27;61762;-76
2022/05/31 03:50:28;;;;;;;;;1.00;1.00;;;;;;;;5105751;27;62078;-76
2022/05/31 03:52:54;;;;;;;;;2.25;2.25;;;;;;;;5087478;27;61931;-76
2022/05/31 03:55:19;;;;;;;;;1.75;1.00;;;;;;;;5087593;27;61762;-76
2022/05/31 03:57:45;;;;;;;;;3.50;2.25;;;;;;;;5086942;27;63869;-76
2022/05/31 04:00:11;;;;;;;;;2.00;2.00;;;;;;;;5105751;27;62086;-76
2022/05/31 04:02:37;;;;;;;;;3.00;3.00;;;;;;;;5105778;27;61888;-76
2022/05/31 04:05:02;;;;;;;;;4.25;2.00;;;;;;;;5105694;27;62160;-76
2022/05/31 04:07:27;;;;;;;;;3.50;3.50;;;;;;;;5105028;27;61845;-76
2022/05/31 04:09:53;;;;;;;;;3.50;1.75;;;;;;;;5105639;27;62044;-76
2022/05/31 04:12:18;;;;;;;;;4.00;4.00;;;;;;;;5105580;27;62428;-76
2022/05/31 04:14:43;;;;;;;;;2.00;2.00;;;;;;;;5106303;27;61924;-76
2022/05/31 04:17:09;;;;;;;;;4.50;3.00;;;;;;;;5086626;27;65183;-76
2022/05/31 04:19:35;;;;;;;;;3.25;3.00;;;;;;;;5105421;27;63146;-76
2022/05/31 04:22:00;;;;;;;;;4.50;3.00;;;;;;;;5105366;27;61882;-76
2022/05/31 04:24:25;;;;;;;;;5.25;4.00;;;;;;;;5105774;27;61897;-75
2022/05/31 04:26:50;;;;;;;;;2.00;2.00;;;;;;;;5105180;27;61978;-76
2022/05/31 04:29:16;;;;;;;;;3.25;3.25;;;;;;;;5087063;27;62317;-76
2022/05/31 04:31:41;;;;;;;;;3.75;2.25;;;;;;;;5087095;27;61973;-76
2022/05/31 04:34:06;;;;;;;;;3.00;2.00;;;;;;;;5086794;27;61839;-76
2022/05/31 04:36:32;;;;;;;;;5.75;4.00;;;;;;;;5104562;27;61705;-76
2022/05/31 04:38:59;;;;;;;;;3.25;3.00;;;;;;;;5104899;27;61822;-76
2022/05/31 04:41:25;;;;;;;;;3.00;3.00;;;;;;;;5105659;27;62647;-76
2022/05/31 04:43:51;;;;;;;;;3.00;3.00;;;;;;;;5105557;27;61938;-76
2022/05/31 04:46:19;;;;;;;;;2.00;2.00;;;;;;;;5104668;27;62141;-76
2022/05/31 04:48:45;;;;;;;;;2.50;2.50;;;;;;;;5086534;27;61753;-76
2022/05/31 04:51:11;;;;;;;;;4.50;4.50;;;;;;;;5104843;27;61856;-76
2022/05/31 04:53:37;;;;;;;;;3.00;3.00;;;;;;;;5104414;27;61893;-76
2022/05/31 04:56:03;;;;;;;;;2.75;2.75;;;;;;;;5086330;27;64879;-76
2022/05/31 04:58:29;;;;;;;;;2.00;2.00;;;;;;;;5104896;27;61829;-76
2022/05/31 05:00:54;;;;;;;;;4.00;3.00;;;;;;;;5105369;27;61899;-76
2022/05/31 05:03:20;;;;;;;;;2.00;2.00;;;;;;;;5105034;27;62169;-76
2022/05/31 05:05:45;;;;;;;;;3.00;2.00;;;;;;;;5103834;27;62186;-76
2022/05/31 05:08:11;;;;;;;;;3.00;3.00;;;;;;;;5104506;27;62075;-76
2022/05/31 05:10:36;;;;;;;;;0.00;0.00;;;;;;;;5104561;27;61904;-76
2022/05/31 05:13:01;;;;;;;;;8.00;3.00;;;;;;;;5086635;27;62263;-77
2022/05/31 05:15:27;;;;;;;;;7.00;2.75;;;;;;;;5085687;27;63563;-77
2022/05/31 05:17:52;;;;;;;;;2.50;2.50;;;;;;;;5086386;27;61782;-77
2022/05/31 05:20:17;;;;;;;;;4.50;3.00;;;;;;;;5103813;27;61957;-76
2022/05/31 05:22:42;;;;;;;;;2.25;2.25;;;;;;;;5105305;27;62055;-76
2022/05/31 05:25:08;;;;;;;;;4.25;2.00;;;;;;;;5104249;27;61903;-76
2022/05/31 05:27:33;;;;;;;;;3.75;2.25;;;;;;;;5086137;27;62134;-76
2022/05/31 05:32:42;;;;;;;;;3.75;2.00;;;;;;;;5102813;27;61893;-73
2022/05/31 05:35:08;;;;;;;;;4.00;1.00;;;;;;;;5102072;27;62237;-73
2022/05/31 05:37:33;;;;;;;;;1.75;1.75;;;;;;;;5102689;27;62307;-73
2022/05/31 05:40:05;;;;;;;;;1.75;1.75;;;;;;;;5103698;27;61783;-72
2022/05/31 05:42:30;;;;;;;;;3.00;3.00;;;;;;;;5102237;27;62291;-75
2022/05/31 05:44:55;;;;;;;;;5.00;3.00;;;;;;;;5103473;27;62728;-74
2022/05/31 05:47:21;;;;;;;;;0.00;0.00;;;;;;;;5103852;27;61860;-72
2022/05/31 05:49:46;;;;;;;;;2.50;2.50;;;;;;;;5103290;27;61946;-73
2022/05/31 05:52:16;;;;;;;;;3.75;3.00;;;;;;;;5103943;27;61785;-76
2022/05/31 05:54:41;;;;;;;;;2.00;2.00;;;;;;;;5102999;27;62449;-76
2022/05/31 05:57:06;;;;;;;;;3.75;3.00;;;;;;;;5085329;27;61870;-76
2022/05/31 05:59:31;;;;;;;;;3.00;2.00;;;;;;;;5103692;27;62093;-76
2022/05/31 06:01:59;;;;;;;;;2.75;2.75;;;;;;;;5103849;27;61817;-73
2022/05/31 06:04:30;;;;;;;;;3.75;1.00;;;;;;;;5102360;27;62024;-73
2022/05/31 06:07:06;;;;;;;;;2.00;2.00;;;;;;;;5100752;27;61785;-74
2022/05/31 06:09:33;;;;;;;;;4.00;3.75;;;;;;;;5083190;28;61741;-72
2022/05/31 06:12:03;;;;;;;;;2.50;2.50;;;;;;;;5083533;28;61951;-73
2022/05/31 06:14:44;;;;;;;;;3.00;3.00;;;;;;;;5082347;28;62705;-72
2022/05/31 06:17:13;;;;;;;;;4.25;3.25;;;;;;;;5082908;28;61777;-73
2022/05/31 06:19:39;;;;;;;;;3.25;3.25;;;;;;;;5092694;27;61890;-74
2022/05/31 06:22:05;;;;;;;;;3.75;3.00;;;;;;;;5102872;27;62009;-73
2022/05/31 06:24:31;;;;;;;;;5.25;3.00;;;;;;;;5102801;27;62853;-75
2022/05/31 06:26:56;;;;;;;;;5.50;4.00;;;;;;;;5103138;27;61820;-75
2022/05/31 06:29:22;;;;;;;;;5.75;3.00;;;;;;;;5103610;27;61820;-74
2022/05/31 06:31:47;;;;;;;;;3.00;3.00;;;;;;;;5103235;27;61775;-75
2022/05/31 06:34:12;;;;;;;;;4.00;3.75;;;;;;;;5080493;28;63616;-75
2022/05/31 06:36:39;;;;;;;;;2.75;2.75;;;;;;;;5098461;27;62234;-76
2022/05/31 06:39:04;;;;;;;;;3.00;3.00;;;;;;;;5082727;28;61898;-76
2022/05/31 06:41:30;;;;;;;;;4.00;3.00;;;;;;;;5064911;28;61967;-76
2022/05/31 06:43:57;;;;;;;;;8.00;4.75;;;;;;;;5090493;27;61981;-74
2022/05/31 06:46:23;;;;;;;;;3.00;3.00;;;;;;;;5102671;27;61746;-76
2022/05/31 06:48:48;;;;;;;;;3.00;2.25;;;;;;;;5102555;27;61886;-74
2022/05/31 06:56:47;;;;;;;;;3.50;3.00;;;;;;;;5102303;27;61889;-74
2022/05/31 06:56:49;;;;;;;;;4.00;2.75;;;;;;;;5102660;27;61812;-74
2022/05/31 06:59:15;;;;;;;;;5.50;3.25;;;;;;;;5084084;27;62119;-79
2022/05/31 07:01:41;;;;;;;;;2.75;2.25;;;;;;;;5084287;27;62203;-73
2022/05/31 07:04:06;;;;;;;;;4.00;2.25;;;;;;;;5101950;27;62750;-72
2022/05/31 07:06:32;;;;;;;;;3.00;2.00;;;;;;;;5084697;27;62162;-73
2022/05/31 07:08:57;;;;;;;;;2.00;2.00;;;;;;;;5101993;27;61992;-72
2022/05/31 07:11:23;;;;;;;;;3.00;2.00;;;;;;;;5102841;27;62018;-72
2022/05/31 07:13:49;;;;;;;;;3.00;3.00;;;;;;;;5101975;27;62782;-73
2022/05/31 07:16:14;;;;;;;;;4.50;2.00;;;;;;;;5102385;27;61940;-72
2022/05/31 07:18:40;;;;;;;;;3.00;2.00;;;;;;;;5102385;27;61697;-72
2022/05/31 07:21:05;;;;;;;;;2.75;2.75;;;;;;;;5083365;27;61783;-75
2022/05/31 07:23:31;;;;;;;;;2.25;2.25;;;;;;;;5101554;27;61838;-75
2022/05/31 07:25:57;;;;;;;;;1.50;1.50;;;;;;;;5101758;27;61854;-75
2022/05/31 07:28:23;;;;;;;;;2.50;2.00;;;;;;;;5083712;27;61913;-75
2022/05/31 07:30:48;;;;;;;;;2.00;2.00;;;;;;;;5101932;27;61875;-75
2022/05/31 07:33:13;;;;;;;;;3.75;3.75;;;;;;;;5101194;27;61896;-75
2022/05/31 07:35:39;;;;;;;;;4.00;1.75;;;;;;;;5082875;27;62167;-75
2022/05/31 07:38:05;;;;;;;;;2.00;2.00;;;;;;;;5083295;27;62091;-74
2022/05/31 07:40:30;;;;;;;;;3.50;2.00;;;;;;;;5101633;27;62016;-74
2022/05/31 07:42:55;;;;;;;;;4.00;1.00;;;;;;;;5101096;27;62175;-73
2022/05/31 07:45:20;;;;;;;;;2.00;2.00;;;;;;;;5083616;27;61927;-73
2022/05/31 07:47:46;;;;;;;;;2.75;2.75;;;;;;;;5102097;27;61916;-73
2022/05/31 07:50:11;;;;;;;;;1.75;1.75;;;;;;;;5083750;27;61794;-73
2022/05/31 07:52:36;;;;;;;;;1.00;1.00;;;;;;;;5100588;27;61970;-73
2022/05/31 07:55:02;;;;;;;;;3.25;1.25;;;;;;;;5101261;27;62128;-72
2022/05/31 08:00:12;;;;;;;;;1.00;1.00;;;;;;;;5102346;27;61956;-73
2022/05/31 08:02:37;;;;;;;;;3.00;3.00;;;;;;;;5101565;27;61835;-72
2022/05/31 08:05:12;;;;;;;;;2.00;2.00;;;;;;;;5082629;27;62193;-72
2022/05/31 08:07:39;;;;;;;;;1.00;1.00;;;;;;;;5102015;27;61754;-73
2022/05/31 08:10:04;;;;;;;;;1.00;1.00;;;;;;;;5101977;27;61786;-73
2022/05/31 08:12:29;;;;;;;;;1.00;1.00;;;;;;;;5101078;27;61829;-73
2022/05/31 08:14:55;;;;;;;;;1.00;1.00;;;;;;;;5101796;27;61857;-72
2022/05/31 08:17:20;;;;;;;;;2.25;2.00;;;;;;;;5102100;27;62081;-73
2022/05/31 08:19:45;;;;;;;;;1.25;1.25;;;;;;;;5101838;27;61854;-74
2022/05/31 08:22:11;;;;;;;;;3.75;1.50;;;;;;;;5082991;27;63761;-72
2022/05/31 08:24:36;;;;;;;;;2.00;1.50;;;;;;;;5101627;27;61773;-73
2022/05/31 08:27:02;;;;;;;;;2.75;1.25;;;;;;;;5101528;27;61878;-74
2022/05/31 08:29:28;;;;;;;;;1.00;1.00;;;;;;;;5103753;27;61711;-72
2022/05/31 08:31:54;;;;;;;;;1.00;1.00;;;;;;;;5104125;27;61819;-72
2022/05/31 08:34:19;;;;;;;;;1.00;1.00;;;;;;;;5104561;27;62177;-73
2022/05/31 08:36:45;;;;;;;;;1.50;1.50;;;;;;;;5104715;27;61800;-73
2022/05/31 08:39:13;;;;;;;;;0.50;0.50;;;;;;;;5104192;27;61823;-72
2022/05/31 08:41:46;;;;;;;;;1.00;1.00;;;;;;;;5104879;27;61987;-72
2022/05/31 08:44:31;;;;;;;;;1.25;1.25;;;;;;;;5104958;27;61984;-73
2022/05/31 08:47:22;;;;;;;;;1.00;1.00;;;;;;;;5086769;27;61934;-73
2022/05/31 08:52:53;;;;;;;;;0.00;0.00;;;;;;;;5104420;27;62372;-73
2022/05/31 08:58:19;;;;;;;;;1.50;0.75;;;;;;;;5104233;27;61810;-73
2022/05/31 09:00:46;;;;;;;;;2.00;1.00;;;;;;;;5086558;27;62273;-73
2022/05/31 09:03:25;;;;;;;;;1.25;1.00;;;;;;;;5103602;27;61933;-73
2022/05/31 09:05:57;;;;;;;;;3.25;2.25;;;;;;;;5104266;27;62039;-74
2022/05/31 09:08:30;;;;;;;;;1.00;1.00;;;;;;;;5077498;28;62045;-73
2022/05/31 09:11:02;;;;;;;;;0.00;0.00;;;;;;;;5097082;27;62021;-73
2022/05/31 09:13:34;;;;;;;;;1.00;1.00;;;;;;;;5104234;27;61978;-73
2022/05/31 09:16:02;;;;;;;;;3.00;1.00;;;;;;;;5104375;27;61825;-73
2022/05/31 09:18:27;;;;;;;;;1.75;1.00;;;;;;;;5104429;27;61969;-74
2022/05/31 09:20:53;;;;;;;;;1.00;1.00;;;;;;;;5104475;27;61769;-74
2022/05/31 09:23:30;;;;;;;;;1.00;1.00;;;;;;;;5103032;27;61925;-73
2022/05/31 09:26:05;;;;;;;;;0.00;0.00;;;;;;;;5104446;27;61883;-75
2022/05/31 09:28:49;;;;;;;;;1.75;1.00;;;;;;;;5085190;27;62440;-73
2022/05/31 09:31:20;;;;;;;;;1.25;1.25;;;;;;;;5104347;27;61769;-73
2022/05/31 09:33:56;;;;;;;;;3.25;1.50;;;;;;;;5103708;27;62852;-73
2022/05/31 09:36:21;;;;;;;;;1.00;1.00;;;;;;;;5103364;27;62150;-73
2022/05/31 09:39:08;;;;;;;;;2.00;1.00;;;;;;;;5104224;27;61832;-73
2022/05/31 09:41:34;;;;;;;;;0.00;0.00;;;;;;;;5104235;27;61875;-73
2022/05/31 09:44:00;;;;;;;;;2.25;1.75;;;;;;;;5084988;27;64057;-73
2022/05/31 09:46:32;;;;;;;;;3.50;1.75;;;;;;;;5085723;27;61640;-73
2022/05/31 09:48:58;;;;;;;;;0.00;0.00;;;;;;;;5103734;27;61895;-73
2022/05/31 09:51:36;;;;;;;;;0.50;0.50;;;;;;;;5085567;27;62204;-73
2022/05/31 09:59:31;;;;;;;;;1.25;1.25;;;;;;;;5103942;27;61719;-73
2022/05/31 10:02:14;;;;;;;;;1.75;1.00;;;;;;;;5103941;27;61818;-73
2022/05/31 10:04:41;;;;;;;;;1.00;1.00;;;;;;;;5083471;27;63768;-74
2022/05/31 10:07:07;;;;;;;;;2.50;0.50;;;;;;;;5103180;27;61855;-73
2022/05/31 10:09:34;;;;;;;;;3.00;1.00;;;;;;;;5084593;27;61987;-75
2022/05/31 10:12:13;;;;;;;;;2.00;2.00;;;;;;;;5103736;27;62199;-74
2022/05/31 10:14:43;;;;;;;;;3.75;1.00;;;;;;;;5084370;27;62721;-74
2022/05/31 10:17:29;;;;;;;;;1.00;1.00;;;;;;;;5103464;27;61907;-73
2022/05/31 10:20:06;;;;;;;;;2.75;1.00;;;;;;;;5103170;27;62016;-75
2022/05/31 10:22:31;;;;;;;;;1.00;0.00;;;;;;;;5103876;27;61718;-74
2022/05/31 10:24:56;;;;;;;;;0.00;0.00;;;;;;;;5102715;27;61925;-74
2022/05/31 10:27:26;;;;;;;;;0.75;0.75;;;;;;;;5085075;27;62055;-74
2022/05/31 10:29:53;;;;;;;;;0.00;0.00;;;;;;;;5103668;27;61833;-73
2022/05/31 10:32:29;;;;;;;;;0.75;0.00;;;;;;;;5103580;27;61967;-73
2022/05/31 10:35:13;;;;;;;;;1.00;1.00;;;;;;;;5078255;28;64914;-74
2022/05/31 10:37:47;;;;;;;;;0.50;0.50;;;;;;;;5082714;28;61913;-74
2022/05/31 10:40:17;;;;;;;;;0.00;0.00;;;;;;;;5099717;27;61875;-74
2022/05/31 10:42:44;;;;;;;;;0.75;0.75;;;;;;;;5103482;27;61910;-73
2022/05/31 10:45:19;;;;;;;;;0.75;0.75;;;;;;;;5102639;27;62772;-74
2022/05/31 10:47:45;;;;;;;;;1.50;1.50;;;;;;;;5102888;27;61913;-74
2022/05/31 10:50:10;;;;;;;;;0.75;0.75;;;;;;;;5103023;27;62338;-74
2022/05/31 10:53:05;;;;;;;;;1.75;1.75;;;;;;;;5102095;27;62628;-74
2022/05/31 10:55:40;;;;;;;;;0.50;0.50;;;;;;;;5084102;27;62904;-74
2022/05/31 10:58:05;;;;;;;;;1.00;0.25;;;;;;;;5103111;27;62092;-74
2022/05/31 11:00:42;;;;;;;;;1.00;1.00;;;;;;;;5084078;27;62135;-74
2022/05/31 11:03:22;;;;;;;;;1.00;1.00;;;;;;;;5098328;27;62223;-74
2022/05/31 11:05:47;;;;;;;;;2.00;2.00;;;;;;;;5098239;27;61989;-74
2022/05/31 11:11:30;;;;;;;;;0.00;0.00;;;;;;;;5100286;27;61917;-74
2022/05/31 11:13:59;;;;;;;;;0.75;0.75;;;;;;;;5075213;27;62152;-74
2022/05/31 11:16:24;;;;;;;;;2.00;0.25;;;;;;;;5100178;27;61955;-74
2022/05/31 11:18:52;;;;;;;;;1.00;1.00;;;;;;;;5100493;27;62289;-74
2022/05/31 11:21:37;;;;;;;;;1.50;0.50;;;;;;;;5081203;27;61979;-74
2022/05/31 11:24:21;;;;;;;;;0.00;0.00;;;;;;;;5081998;27;61731;-74
2022/05/31 11:26:46;;;;;;;;;0.00;0.00;;;;;;;;5078985;27;63776;-74
2022/05/31 11:29:14;;;;;;;;;1.00;0.00;;;;;;;;5099823;27;61896;-74
2022/05/31 11:31:47;;;;;;;;;1.50;0.50;;;;;;;;5082336;27;62454;-75
2022/05/31 11:34:16;;;;;;;;;0.00;0.00;;;;;;;;5100887;27;61871;-75
2022/05/31 11:36:54;;;;;;;;;0.00;0.00;;;;;;;;5097489;27;62565;-75
2022/05/31 11:39:28;;;;;;;;;0.50;0.50;;;;;;;;5082327;27;61996;-75
2022/05/31 11:41:59;;;;;;;;;1.50;0.00;;;;;;;;5101894;27;61807;-75
2022/05/31 11:44:30;;;;;;;;;1.00;1.00;;;;;;;;5083244;27;61848;-74
2022/05/31 11:47:12;;;;;;;;;2.00;0.00;;;;;;;;5080306;27;64377;-76
2022/05/31 11:49:46;;;;;;;;;0.50;0.50;;;;;;;;5096448;27;62697;-75
2022/05/31 11:52:18;;;;;;;;;1.75;1.00;;;;;;;;5083048;27;61764;-76
2022/05/31 11:54:45;;;;;;;;;0.00;0.00;;;;;;;;5099271;27;61974;-76
2022/05/31 11:57:26;;;;;;;;;0.67;0.67;;;;;;;;5082737;27;63366;-75
2022/05/31 12:00:04;;;;;;;;;0.33;0.33;;;;;;;;5100439;27;62344;-78
2022/05/31 12:02:38;;;;;;;;;0.00;0.00;;;;;;;;5100528;27;62237;-78
2022/05/31 12:05:06;;;;;;;;;0.00;0.00;;;;;;;;5102376;27;62065;-78
2022/05/31 12:07:37;;;;;;;;;3.00;2.00;;;;;;;;5101456;27;62840;-78
2022/05/31 12:10:17;;;;;;;;;0.00;0.00;;;;;;;;5087528;27;61947;-75
2022/05/31 12:12:44;;;;;;;;;0.00;0.00;;;;;;;;5104388;27;61873;-76
2022/05/31 12:15:20;;;;;;;;;1.00;1.00;;;;;;;;5085815;27;61836;-75
2022/05/31 12:18:10;;;;;;;;;0.00;0.00;;;;;;;;5104205;27;62758;-76
2022/05/31 12:20:41;;;;;;;;;0.00;0.00;;;;;;;;5104200;27;62061;-74
2022/05/31 12:23:06;;;;;;;;;0.00;0.00;;;;;;;;5104887;27;62104;-74
2022/05/31 12:25:39;;;;;;;;;1.33;1.33;;;;;;;;5104954;27;62192;-74
2022/05/31 12:28:08;;;;;;;;;2.00;0.00;;;;;;;;5085515;27;63784;-74
2022/05/31 12:30:36;;;;;;;;;1.00;0.00;;;;;;;;5104798;27;62218;-74
2022/05/31 12:33:21;;;;;;;;;0.00;0.00;;;;;;;;5104040;27;61966;-72
2022/05/31 12:35:47;;;;;;;;;0.00;0.00;;;;;;;;5103671;27;62160;-76
2022/05/31 12:38:12;;;;;;;;;1.75;0.50;;;;;;;;5085035;27;63614;-74
2022/05/31 12:40:38;;;;;;;;;0.00;0.00;;;;;;;;5104260;27;61757;-75
2022/05/31 12:43:08;;;;;;;;;1.25;1.25;;;;;;;;5104264;27;62139;-73
2022/05/31 12:45:33;;;;;;;;;1.00;1.00;;;;;;;;5104483;27;61813;-74
2022/05/31 12:47:59;;;;;;;;;1.00;1.00;;;;;;;;5102952;27;62030;-73
2022/05/31 12:56:36;;;;;;;;;1.33;0.00;;;;;;;;5095671;27;61853;-74
2022/05/31 12:59:03;;;;;;;;;0.00;0.00;;;;;;;;5102956;27;61845;-74
2022/05/31 13:01:28;;;;;;;;;1.33;0.00;;;;;;;;5086383;27;62172;-73
2022/05/31 13:03:56;;;;;;;;;0.00;0.00;;;;;;;;5089786;27;61997;-73
2022/05/31 13:06:22;;;;;;;;;0.00;0.00;;;;;;;;5084285;28;61915;-73
2022/05/31 13:08:56;;;;;;;;;0.00;0.00;;;;;;;;5094153;27;62101;-73
2022/05/31 13:20:04;;;;;;;;;0.00;0.00;;;;;;;;5081016;27;62011;-73
2022/05/31 13:22:37;;;;;;;;;0.33;0.00;;;;;;;;5084219;28;61596;-73
2022/05/31 13:25:04;;;;;;;;;0.67;0.00;;;;;;;;5083326;28;61745;-76
2022/05/31 13:27:34;;;;;;;;;2.67;0.00;;;;;;;;5083985;28;61640;-75
2022/05/31 13:30:09;;;;;;;;;0.00;0.00;;;;;;;;5082914;28;61780;-74
2022/05/31 13:32:35;;;;;;;;;1.00;1.00;;;;;;;;5082003;28;62031;-74
2022/05/31 13:35:32;;;;;;;;;0.67;0.67;;;;;;;;5081659;28;62042;-75
2022/05/31 13:38:00;;;;;;;;;0.00;0.00;;;;;;;;5061455;28;62092;-73
2022/05/31 13:40:34;;;;;;;;;0.33;0.33;;;;;;;;5080052;28;62057;-76
2022/05/31 13:43:01;;;;;;;;;1.00;0.00;;;;;;;;5079415;28;62059;-75
2022/05/31 13:45:30;;;;;;;;;1.33;0.00;;;;;;;;5078726;28;62087;-75
2022/05/31 13:47:59;;;;;;;;;0.00;0.00;;;;;;;;5083233;28;61904;-75
2022/05/31 13:50:33;;;;;;;;;1.00;1.00;;;;;;;;5082240;28;61853;-76
2022/05/31 13:53:02;;;;;;;;;0.00;0.00;;;;;;;;5083156;28;61958;-73
2022/05/31 13:55:29;;;;;;;;;0.00;0.00;;;;;;;;5083273;28;61866;-74
2022/05/31 13:57:56;;;;;;;;;0.00;0.00;;;;;;;;5083339;28;61829;-74
2022/05/31 14:00:31;;;;;;;;;0.00;0.00;;;;;;;;5081797;28;61824;-74
2022/05/31 14:03:05;;;;;;;;;2.00;1.00;;;;;;;;5075070;28;61900;-74
2022/05/31 14:05:33;;;;;;;;;0.67;0.67;;;;;;;;5062008;28;61743;-73
2022/05/31 14:07:59;;;;;;;;;1.67;0.00;;;;;;;;5082624;28;61823;-75
2022/05/31 14:10:35;;;;;;;;;0.67;0.67;;;;;;;;5110318;27;62813;-73
2022/05/31 14:13:02;;;;;;;;;0.33;0.33;;;;;;;;5123299;27;61937;-73
2022/05/31 14:15:28;;;;;;;;;0.00;0.00;;;;;;;;5122953;27;61906;-74
2022/05/31 14:18:14;;;;;;;;;0.67;0.00;;;;;;;;5119979;27;62101;-74
2022/05/31 14:20:41;;;;;;;;;0.00;0.00;;;;;;;;5130528;27;63799;-74
2022/05/31 14:23:18;;;;;;;;;0.33;0.00;;;;;;;;5121172;27;61769;-74
2022/05/31 14:25:46;;;;;;;;;1.67;0.00;;;;;;;;5119525;27;61909;-79
2022/05/31 14:28:16;;;;;;;;;1.00;0.00;;;;;;;;5121147;27;62000;-75
2022/05/31 14:30:49;;;;;;;;;0.33;0.33;;;;;;;;5100518;27;64615;-74
2022/05/31 14:33:15;;;;;;;;;0.00;0.00;;;;;;;;5102937;27;61997;-76
2022/05/31 14:35:44;;;;;;;;;2.33;0.67;;;;;;;;5120572;27;62100;-76
2022/05/31 14:38:17;;;;;;;;;0.00;0.00;;;;;;;;5122554;27;61831;-76
2022/05/31 14:40:49;;;;;;;;;0.50;0.50;;;;;;;;5102445;27;62796;-81
2022/05/31 14:43:26;;;;;;;;;1.33;0.67;;;;;;;;5119394;27;61932;-77
2022/05/31 14:45:51;;;;;;;;;0.00;0.00;;;;;;;;5122080;27;61993;-76
2022/05/31 14:48:26;;;;;;;;;0.00;0.00;;;;;;;;5121419;27;62084;-76
2022/05/31 14:50:56;;;;;;;;;0.00;0.00;;;;;;;;5121026;27;61726;-76
2022/05/31 14:53:22;;;;;;;;;0.33;0.33;;;;;;;;5121705;27;62099;-76
2022/05/31 14:55:47;;;;;;;;;0.00;0.00;;;;;;;;5103320;27;61954;-76
2022/05/31 14:58:40;;;;;;;;;0.00;0.00;;;;;;;;5119489;27;62135;-76
2022/05/31 15:01:13;;;;;;;;;1.00;1.00;;;;;;;;5120412;27;61804;-74
2022/05/31 15:03:39;;;;;;;;;0.67;0.67;;;;;;;;5120090;27;62013;-74
2022/05/31 15:06:06;;;;;;;;;2.00;2.00;;;;;;;;5122172;27;61960;-73
2022/05/31 15:08:36;;;;;;;;;2.00;0.00;;;;;;;;5121244;27;61972;-73
2022/05/31 15:19:35;;;;;;;;;0.00;0.00;;;;;;;;5120083;27;61725;-73
2022/05/31 15:22:02;;;;;;;;;0.00;0.00;;;;;;;;5135622;27;62048;-73
2022/05/31 15:24:33;;;;;;;;;0.00;0.00;;;;;;;;5120765;27;61937;-73
2022/05/31 15:26:59;;;;;;;;;0.00;0.00;;;;;;;;5121475;27;61934;-74
2022/05/31 15:29:24;;;;;;;;;2.00;1.00;;;;;;;;5121105;27;62068;-73
2022/05/31 15:31:50;;;;;;;;;0.00;0.00;;;;;;;;5120125;27;61949;-72
2022/05/31 15:34:15;;;;;;;;;1.00;1.00;;;;;;;;5120916;27;61873;-73
2022/05/31 15:36:42;;;;;;;;;0.00;0.00;;;;;;;;5102854;27;61738;-73
2022/05/31 15:39:09;;;;;;;;;1.00;1.00;;;;;;;;5125110;27;61969;-73
2022/05/31 15:41:40;;;;;;;;;0.00;0.00;;;;;;;;5125351;27;61834;-73